sensor_id;sensor_type;location;lat;lon;timestamp;temperature;humidity
21646;DHT22;10984;45.712;4.800;2023-03-01T00:01:27;2.30;99.90
21646;DHT22;10984;45.712;4.800;2023-03-01T00:03:54;2.30;99.90
21646;DHT22;10984;45.712;4.800;2023-03-01T00:06:20;2.20;99.90
21646;DHT22;10984;45.712;4.800;2023-03-01T00:08:46;2.20;99.90
21646;DHT22;10984;45.712;4.800;2023-03-01T00:14:00;2.20;99.90
21646;DHT22;10984;45.712;4.800;2023-03-01T00:16:45;2.20;99.90
21646;DHT22;10984;45.712;4.800;2023-03-01T00:19:29;2.10;99.90
21646;DHT22;10984;45.712;4.800;2023-03-01T00:21:55;2.10;99.90
21646;DHT22;10984;45.712;4.800;2023-03-01T00:24:20;2.10;99.90
21646;DHT22;10984;45.712;4.800;2023-03-01T00:26:46;2.10;99.90
21646;DHT22;10984;45.712;4.800;2023-03-01T00:29:12;2.20;99.90
21646;DHT22;10984;45.712;4.800;2023-03-01T00:31:37;2.10;99.90
21646;DHT22;10984;45.712;4.800;2023-03-01T00:34:04;2.10;99.90
21646;DHT22;10984;45.712;4.800;2023-03-01T00:36:33;2.00;99.90
21646;DHT22;10984;45.712;4.800;2023-03-01T00:39:00;2.00;99.90
21646;DHT22;10984;45.712;4.800;2023-03-01T00:41:26;1.90;99.90
21646;DHT22;10984;45.712;4.800;2023-03-01T00:43:53;1.80;99.90
21646;DHT22;10984;45.712;4.800;2023-03-01T00:46:22;1.80;99.90
21646;DHT22;10984;45.712;4.800;2023-03-01T00:48:48;1.80;99.90
21646;DHT22;10984;45.712;4.800;2023-03-01T00:51:16;1.70;99.90
21646;DHT22;10984;45.712;4.800;2023-03-01T00:53:42;1.60;99.90
21646;DHT22;10984;45.712;4.800;2023-03-01T00:56:10;1.70;99.90
21646;DHT22;10984;45.712;4.800;2023-03-01T00:58:36;1.60;99.90
21646;DHT22;10984;45.712;4.800;2023-03-01T01:01:08;1.60;99.90
21646;DHT22;10984;45.712;4.800;2023-03-01T01:03:43;1.50;99.90
21646;DHT22;10984;45.712;4.800;2023-03-01T01:08:58;1.40;99.90
21646;DHT22;10984;45.712;4.800;2023-03-01T01:11:25;1.30;99.90
21646;DHT22;10984;45.712;4.800;2023-03-01T01:13:51;1.10;99.90
21646;DHT22;10984;45.712;4.800;2023-03-01T01:16:19;1.10;99.90
21646;DHT22;10984;45.712;4.800;2023-03-01T01:18:46;1.10;99.90
21646;DHT22;10984;45.712;4.800;2023-03-01T01:21:14;1.00;99.90
21646;DHT22;10984;45.712;4.800;2023-03-01T01:23:42;0.80;99.90
21646;DHT22;10984;45.712;4.800;2023-03-01T01:28:54;0.70;99.90
21646;DHT22;10984;45.712;4.800;2023-03-01T01:31:20;0.60;99.90
21646;DHT22;10984;45.712;4.800;2023-03-01T01:33:49;0.60;99.90
21646;DHT22;10984;45.712;4.800;2023-03-01T01:36:14;0.50;99.90
21646;DHT22;10984;45.712;4.800;2023-03-01T01:38:40;0.50;99.90
21646;DHT22;10984;45.712;4.800;2023-03-01T01:41:08;0.50;99.90
21646;DHT22;10984;45.712;4.800;2023-03-01T01:43:40;0.40;99.90
21646;DHT22;10984;45.712;4.800;2023-03-01T01:52:16;0.20;99.90
21646;DHT22;10984;45.712;4.800;2023-03-01T01:57:49;0.00;99.90
21646;DHT22;10984;45.712;4.800;2023-03-01T02:03:24;-0.10;99.90
21646;DHT22;10984;45.712;4.800;2023-03-01T02:08:42;-0.10;99.90
21646;DHT22;10984;45.712;4.800;2023-03-01T02:11:09;-0.10;99.90
21646;DHT22;10984;45.712;4.800;2023-03-01T02:13:36;-0.10;99.90
21646;DHT22;10984;45.712;4.800;2023-03-01T02:16:20;0.00;99.90
21646;DHT22;10984;45.712;4.800;2023-03-01T02:18:46;-0.10;99.90
21646;DHT22;10984;45.712;4.800;2023-03-01T02:21:15;0.00;99.90
21646;DHT22;10984;45.712;4.800;2023-03-01T02:23:43;0.10;99.90
21646;DHT22;10984;45.712;4.800;2023-03-01T02:29:12;0.00;99.90
21646;DHT22;10984;45.712;4.800;2023-03-01T02:31:37;-0.10;99.90
21646;DHT22;10984;45.712;4.800;2023-03-01T02:34:24;-0.10;99.90
21646;DHT22;10984;45.712;4.800;2023-03-01T02:37:01;-0.10;99.90
21646;DHT22;10984;45.712;4.800;2023-03-01T02:39:40;0.00;99.90
21646;DHT22;10984;45.712;4.800;2023-03-01T02:42:11;-0.10;99.90
21646;DHT22;10984;45.712;4.800;2023-03-01T02:44:38;-0.10;99.90
21646;DHT22;10984;45.712;4.800;2023-03-01T02:47:04;-0.20;99.90
21646;DHT22;10984;45.712;4.800;2023-03-01T02:49:34;-0.20;99.90
21646;DHT22;10984;45.712;4.800;2023-03-01T02:54:49;-0.40;99.90
21646;DHT22;10984;45.712;4.800;2023-03-01T02:57:18;-0.40;99.90
21646;DHT22;10984;45.712;4.800;2023-03-01T02:59:44;-0.40;99.90
21646;DHT22;10984;45.712;4.800;2023-03-01T03:02:24;-0.40;99.90
21646;DHT22;10984;45.712;4.800;2023-03-01T03:05:13;-0.40;99.90
21646;DHT22;10984;45.712;4.800;2023-03-01T03:07:42;-0.50;99.90
21646;DHT22;10984;45.712;4.800;2023-03-01T03:10:11;-0.50;99.90
21646;DHT22;10984;45.712;4.800;2023-03-01T03:12:38;-0.40;99.90
21646;DHT22;10984;45.712;4.800;2023-03-01T03:15:05;-0.40;99.90
21646;DHT22;10984;45.712;4.800;2023-03-01T03:17:36;-0.40;99.90
21646;DHT22;10984;45.712;4.800;2023-03-01T03:20:03;-0.50;99.90
21646;DHT22;10984;45.712;4.800;2023-03-01T03:22:29;-0.40;99.90
21646;DHT22;10984;45.712;4.800;2023-03-01T03:24:55;-0.40;99.90
21646;DHT22;10984;45.712;4.800;2023-03-01T03:27:20;-0.40;99.90
21646;DHT22;10984;45.712;4.800;2023-03-01T03:29:46;-0.40;99.90
21646;DHT22;10984;45.712;4.800;2023-03-01T03:32:12;-0.40;99.90
21646;DHT22;10984;45.712;4.800;2023-03-01T03:34:37;-0.40;99.90
21646;DHT22;10984;45.712;4.800;2023-03-01T03:37:03;-0.50;99.90
21646;DHT22;10984;45.712;4.800;2023-03-01T03:39:28;-0.50;99.90
21646;DHT22;10984;45.712;4.800;2023-03-01T03:42:00;-0.60;99.90
21646;DHT22;10984;45.712;4.800;2023-03-01T03:44:26;-0.70;99.90
21646;DHT22;10984;45.712;4.800;2023-03-01T03:46:52;-0.70;99.90
21646;DHT22;10984;45.712;4.800;2023-03-01T03:49:17;-0.70;99.90
21646;DHT22;10984;45.712;4.800;2023-03-01T03:51:45;-0.70;99.90
21646;DHT22;10984;45.712;4.800;2023-03-01T03:54:11;-0.80;99.90
21646;DHT22;10984;45.712;4.800;2023-03-01T03:56:37;-0.80;99.90
21646;DHT22;10984;45.712;4.800;2023-03-01T03:59:02;-0.80;99.90
21646;DHT22;10984;45.712;4.800;2023-03-01T04:01:28;-0.90;99.90
21646;DHT22;10984;45.712;4.800;2023-03-01T04:03:54;-0.90;99.90
21646;DHT22;10984;45.712;4.800;2023-03-01T04:06:20;-0.90;99.90
21646;DHT22;10984;45.712;4.800;2023-03-01T04:08:46;-1.00;99.90
21646;DHT22;10984;45.712;4.800;2023-03-01T04:11:11;-1.00;99.90
21646;DHT22;10984;45.712;4.800;2023-03-01T04:13:57;-1.00;99.90
21646;DHT22;10984;45.712;4.800;2023-03-01T04:16:24;-0.90;99.90
21646;DHT22;10984;45.712;4.800;2023-03-01T04:18:50;-0.90;99.90
21646;DHT22;10984;45.712;4.800;2023-03-01T04:21:17;-0.90;99.90
21646;DHT22;10984;45.712;4.800;2023-03-01T04:23:45;-0.90;99.90
21646;DHT22;10984;45.712;4.800;2023-03-01T04:26:11;-0.90;99.90
21646;DHT22;10984;45.712;4.800;2023-03-01T04:28:39;-0.90;99.90
21646;DHT22;10984;45.712;4.800;2023-03-01T04:31:23;-0.90;99.90
21646;DHT22;10984;45.712;4.800;2023-03-01T04:33:51;-1.00;99.90
21646;DHT22;10984;45.712;4.800;2023-03-01T04:36:19;-1.00;99.90
21646;DHT22;10984;45.712;4.800;2023-03-01T04:38:45;-1.00;99.90
21646;DHT22;10984;45.712;4.800;2023-03-01T04:41:29;-1.10;99.90
21646;DHT22;10984;45.712;4.800;2023-03-01T04:43:55;-1.10;99.90
21646;DHT22;10984;45.712;4.800;2023-03-01T04:46:21;-1.10;99.90
21646;DHT22;10984;45.712;4.800;2023-03-01T04:48:47;-1.10;99.90
21646;DHT22;10984;45.712;4.800;2023-03-01T04:51:12;-1.20;99.90
21646;DHT22;10984;45.712;4.800;2023-03-01T04:53:39;-1.20;99.90
21646;DHT22;10984;45.712;4.800;2023-03-01T04:56:05;-1.30;99.90
21646;DHT22;10984;45.712;4.800;2023-03-01T04:58:31;-1.30;99.90
21646;DHT22;10984;45.712;4.800;2023-03-01T05:00:57;-1.30;99.90
21646;DHT22;10984;45.712;4.800;2023-03-01T05:03:23;-1.30;99.90
21646;DHT22;10984;45.712;4.800;2023-03-01T05:05:50;-1.30;99.90
21646;DHT22;10984;45.712;4.800;2023-03-01T05:08:16;-1.30;99.90
21646;DHT22;10984;45.712;4.800;2023-03-01T05:11:00;-1.30;99.90
21646;DHT22;10984;45.712;4.800;2023-03-01T05:13:26;-1.30;99.90
21646;DHT22;10984;45.712;4.800;2023-03-01T05:18:40;-1.20;99.90
21646;DHT22;10984;45.712;4.800;2023-03-01T05:21:08;-1.20;99.90
21646;DHT22;10984;45.712;4.800;2023-03-01T05:23:34;-1.20;99.90
21646;DHT22;10984;45.712;4.800;2023-03-01T05:26:00;-1.20;99.90
21646;DHT22;10984;45.712;4.800;2023-03-01T05:28:28;-1.10;99.90
21646;DHT22;10984;45.712;4.800;2023-03-01T05:30:54;-1.10;99.90
21646;DHT22;10984;45.712;4.800;2023-03-01T05:33:19;-1.10;99.90
21646;DHT22;10984;45.712;4.800;2023-03-01T05:35:47;-1.10;99.90
21646;DHT22;10984;45.712;4.800;2023-03-01T05:38:14;-1.10;99.90
21646;DHT22;10984;45.712;4.800;2023-03-01T05:40:42;-1.10;99.90
21646;DHT22;10984;45.712;4.800;2023-03-01T05:43:09;-1.00;99.90
21646;DHT22;10984;45.712;4.800;2023-03-01T05:45:37;-1.10;99.90
21646;DHT22;10984;45.712;4.800;2023-03-01T05:48:03;-1.00;99.90
21646;DHT22;10984;45.712;4.800;2023-03-01T05:50:33;-1.00;99.90
21646;DHT22;10984;45.712;4.800;2023-03-01T05:53:01;-0.90;99.90
21646;DHT22;10984;45.712;4.800;2023-03-01T05:55:28;-0.90;99.90
21646;DHT22;10984;45.712;4.800;2023-03-01T05:57:54;-0.80;99.90
21646;DHT22;10984;45.712;4.800;2023-03-01T06:00:21;-0.80;99.90
21646;DHT22;10984;45.712;4.800;2023-03-01T06:02:49;-0.70;99.90
21646;DHT22;10984;45.712;4.800;2023-03-01T06:05:17;-0.80;99.90
21646;DHT22;10984;45.712;4.800;2023-03-01T06:07:43;-0.70;99.90
21646;DHT22;10984;45.712;4.800;2023-03-01T06:10:10;-0.70;99.90
21646;DHT22;10984;45.712;4.800;2023-03-01T06:12:37;-0.60;99.90
21646;DHT22;10984;45.712;4.800;2023-03-01T06:15:04;-0.60;99.90
21646;DHT22;10984;45.712;4.800;2023-03-01T06:17:32;-0.60;99.90
21646;DHT22;10984;45.712;4.800;2023-03-01T06:19:58;-0.50;99.90
21646;DHT22;10984;45.712;4.800;2023-03-01T06:22:24;-0.40;99.90
21646;DHT22;10984;45.712;4.800;2023-03-01T06:24:49;-0.40;99.90
21646;DHT22;10984;45.712;4.800;2023-03-01T06:27:15;-0.30;99.90
21646;DHT22;10984;45.712;4.800;2023-03-01T06:29:41;-0.30;99.90
21646;DHT22;10984;45.712;4.800;2023-03-01T06:32:06;-0.30;99.90
21646;DHT22;10984;45.712;4.800;2023-03-01T06:34:33;-0.20;99.90
21646;DHT22;10984;45.712;4.800;2023-03-01T06:36:59;-0.20;99.90
21646;DHT22;10984;45.712;4.800;2023-03-01T06:39:27;-0.10;99.90
21646;DHT22;10984;45.712;4.800;2023-03-01T06:41:52;-0.10;99.90
21646;DHT22;10984;45.712;4.800;2023-03-01T06:44:18;0.00;99.90
21646;DHT22;10984;45.712;4.800;2023-03-01T06:46:44;0.10;99.90
21646;DHT22;10984;45.712;4.800;2023-03-01T06:49:09;0.10;99.90
21646;DHT22;10984;45.712;4.800;2023-03-01T06:51:36;0.10;99.90
21646;DHT22;10984;45.712;4.800;2023-03-01T06:54:03;0.20;99.90
21646;DHT22;10984;45.712;4.800;2023-03-01T06:56:30;0.30;99.90
21646;DHT22;10984;45.712;4.800;2023-03-01T06:58:56;0.30;99.90
21646;DHT22;10984;45.712;4.800;2023-03-01T07:01:21;0.40;99.90
21646;DHT22;10984;45.712;4.800;2023-03-01T07:03:47;0.40;99.90
21646;DHT22;10984;45.712;4.800;2023-03-01T07:06:13;0.50;99.90
21646;DHT22;10984;45.712;4.800;2023-03-01T07:08:38;0.50;99.90
21646;DHT22;10984;45.712;4.800;2023-03-01T07:11:04;0.60;99.90
21646;DHT22;10984;45.712;4.800;2023-03-01T07:13:31;0.70;99.90
21646;DHT22;10984;45.712;4.800;2023-03-01T07:15:57;0.70;99.90
21646;DHT22;10984;45.712;4.800;2023-03-01T07:18:23;0.70;99.90
21646;DHT22;10984;45.712;4.800;2023-03-01T07:20:48;0.80;99.90
21646;DHT22;10984;45.712;4.800;2023-03-01T07:23:14;0.80;99.90
21646;DHT22;10984;45.712;4.800;2023-03-01T07:25:40;1.00;99.90
21646;DHT22;10984;45.712;4.800;2023-03-01T07:28:06;1.00;99.90
21646;DHT22;10984;45.712;4.800;2023-03-01T07:30:32;1.20;99.90
21646;DHT22;10984;45.712;4.800;2023-03-01T07:32:58;1.40;99.90
21646;DHT22;10984;45.712;4.800;2023-03-01T07:35:25;1.50;99.90
21646;DHT22;10984;45.712;4.800;2023-03-01T07:37:52;1.60;99.90
21646;DHT22;10984;45.712;4.800;2023-03-01T07:40:17;1.70;99.90
21646;DHT22;10984;45.712;4.800;2023-03-01T07:42:43;1.80;99.90
21646;DHT22;10984;45.712;4.800;2023-03-01T07:45:09;1.90;99.90
21646;DHT22;10984;45.712;4.800;2023-03-01T07:47:35;2.00;99.90
21646;DHT22;10984;45.712;4.800;2023-03-01T07:50:01;2.20;99.90
21646;DHT22;10984;45.712;4.800;2023-03-01T07:52:28;2.30;99.90
21646;DHT22;10984;45.712;4.800;2023-03-01T07:54:53;2.50;99.90
21646;DHT22;10984;45.712;4.800;2023-03-01T07:57:19;2.60;99.90
21646;DHT22;10984;45.712;4.800;2023-03-01T07:59:45;2.60;99.90
21646;DHT22;10984;45.712;4.800;2023-03-01T08:02:11;2.70;99.90
21646;DHT22;10984;45.712;4.800;2023-03-01T08:04:36;2.60;99.90
21646;DHT22;10984;45.712;4.800;2023-03-01T08:07:05;2.60;99.90
21646;DHT22;10984;45.712;4.800;2023-03-01T08:09:30;2.70;99.90
21646;DHT22;10984;45.712;4.800;2023-03-01T08:11:57;2.60;99.90
21646;DHT22;10984;45.712;4.800;2023-03-01T08:14:25;2.60;99.90
21646;DHT22;10984;45.712;4.800;2023-03-01T08:16:50;2.60;99.90
21646;DHT22;10984;45.712;4.800;2023-03-01T08:19:16;2.60;99.90
21646;DHT22;10984;45.712;4.800;2023-03-01T08:21:42;2.80;99.90
21646;DHT22;10984;45.712;4.800;2023-03-01T08:24:08;3.00;99.90
21646;DHT22;10984;45.712;4.800;2023-03-01T08:26:35;3.10;99.90
21646;DHT22;10984;45.712;4.800;2023-03-01T08:29:02;3.20;99.90
21646;DHT22;10984;45.712;4.800;2023-03-01T08:31:46;3.10;99.90
21646;DHT22;10984;45.712;4.800;2023-03-01T08:34:15;3.20;99.90
21646;DHT22;10984;45.712;4.800;2023-03-01T08:36:42;3.20;99.90
21646;DHT22;10984;45.712;4.800;2023-03-01T08:39:11;3.30;99.90
21646;DHT22;10984;45.712;4.800;2023-03-01T08:41:37;3.20;99.90
21646;DHT22;10984;45.712;4.800;2023-03-01T08:44:03;3.30;99.90
21646;DHT22;10984;45.712;4.800;2023-03-01T08:49:17;3.30;99.90
21646;DHT22;10984;45.712;4.800;2023-03-01T08:51:45;3.40;99.90
21646;DHT22;10984;45.712;4.800;2023-03-01T08:54:16;3.50;99.90
21646;DHT22;10984;45.712;4.800;2023-03-01T08:56:42;3.50;99.90
21646;DHT22;10984;45.712;4.800;2023-03-01T08:59:09;3.50;99.90
21646;DHT22;10984;45.712;4.800;2023-03-01T09:01:34;3.60;99.90
21646;DHT22;10984;45.712;4.800;2023-03-01T09:04:01;3.70;99.90
21646;DHT22;10984;45.712;4.800;2023-03-01T09:06:30;3.60;99.90
21646;DHT22;10984;45.712;4.800;2023-03-01T09:08:57;3.80;99.90
21646;DHT22;10984;45.712;4.800;2023-03-01T09:11:23;3.90;99.90
21646;DHT22;10984;45.712;4.800;2023-03-01T09:13:49;4.00;99.90
21646;DHT22;10984;45.712;4.800;2023-03-01T09:16:18;4.10;99.90
21646;DHT22;10984;45.712;4.800;2023-03-01T09:18:45;4.10;99.90
21646;DHT22;10984;45.712;4.800;2023-03-01T09:21:13;3.90;99.90
21646;DHT22;10984;45.712;4.800;2023-03-01T09:23:44;4.30;99.90
21646;DHT22;10984;45.712;4.800;2023-03-01T09:26:13;4.50;99.90
21646;DHT22;10984;45.712;4.800;2023-03-01T09:28:40;4.40;99.90
21646;DHT22;10984;45.712;4.800;2023-03-01T09:31:24;4.30;99.90
21646;DHT22;10984;45.712;4.800;2023-03-01T09:33:52;3.90;99.90
21646;DHT22;10984;45.712;4.800;2023-03-01T09:36:21;4.10;99.90
21646;DHT22;10984;45.712;4.800;2023-03-01T09:38:48;4.10;99.90
21646;DHT22;10984;45.712;4.800;2023-03-01T09:44:38;4.10;99.90
21646;DHT22;10984;45.712;4.800;2023-03-01T09:47:05;4.20;99.90
21646;DHT22;10984;45.712;4.800;2023-03-01T09:49:37;4.20;99.90
21646;DHT22;10984;45.712;4.800;2023-03-01T09:55:12;4.30;99.90
21646;DHT22;10984;45.712;4.800;2023-03-01T10:06:33;4.30;99.90
21646;DHT22;10984;45.712;4.800;2023-03-01T10:09:18;4.60;99.90
21646;DHT22;10984;45.712;4.800;2023-03-01T10:23:42;4.70;99.90
21646;DHT22;10984;45.712;4.800;2023-03-01T10:29:12;5.10;99.90
21646;DHT22;10984;45.712;4.800;2023-03-01T10:34:42;5.10;99.90
21646;DHT22;10984;45.712;4.800;2023-03-01T10:37:27;5.30;99.90
21646;DHT22;10984;45.712;4.800;2023-03-01T10:40:11;5.40;99.90
21646;DHT22;10984;45.712;4.800;2023-03-01T10:45:40;5.70;99.90
21646;DHT22;10984;45.712;4.800;2023-03-01T10:48:25;5.90;99.90
21646;DHT22;10984;45.712;4.800;2023-03-01T10:51:12;6.10;99.90
21646;DHT22;10984;45.712;4.800;2023-03-01T10:53:42;6.10;99.90
21646;DHT22;10984;45.712;4.800;2023-03-01T10:56:09;6.00;99.90
21646;DHT22;10984;45.712;4.800;2023-03-01T10:58:38;5.80;99.90
21646;DHT22;10984;45.712;4.800;2023-03-01T11:01:08;6.00;99.90
21646;DHT22;10984;45.712;4.800;2023-03-01T11:06:58;6.10;99.90
21646;DHT22;10984;45.712;4.800;2023-03-01T11:09:24;6.00;99.90
21646;DHT22;10984;45.712;4.800;2023-03-01T11:12:13;6.10;99.90
21646;DHT22;10984;45.712;4.800;2023-03-01T11:17:31;6.50;99.90
21646;DHT22;10984;45.712;4.800;2023-03-01T11:23:19;7.00;99.90
21646;DHT22;10984;45.712;4.800;2023-03-01T11:26:05;7.10;99.90
21646;DHT22;10984;45.712;4.800;2023-03-01T11:28:36;7.20;99.90
21646;DHT22;10984;45.712;4.800;2023-03-01T11:31:06;6.90;99.90
21646;DHT22;10984;45.712;4.800;2023-03-01T11:36:43;6.90;99.90
21646;DHT22;10984;45.712;4.800;2023-03-01T11:44:43;6.90;99.90
21646;DHT22;10984;45.712;4.800;2023-03-01T11:56:38;6.90;99.90
21646;DHT22;10984;45.712;4.800;2023-03-01T12:52:14;7.10;99.90
21646;DHT22;10984;45.712;4.800;2023-03-01T12:54:41;7.40;99.90
21646;DHT22;10984;45.712;4.800;2023-03-01T13:15:32;7.10;99.90
21646;DHT22;10984;45.712;4.800;2023-03-01T13:26:17;7.00;99.90
21646;DHT22;10984;45.712;4.800;2023-03-01T13:29:01;6.90;99.90
21646;DHT22;10984;45.712;4.800;2023-03-01T13:39:04;7.10;99.90
21646;DHT22;10984;45.712;4.800;2023-03-01T13:41:49;7.10;99.90
21646;DHT22;10984;45.712;4.800;2023-03-01T13:44:35;7.20;99.90
21646;DHT22;10984;45.712;4.800;2023-03-01T13:47:20;7.10;99.90
21646;DHT22;10984;45.712;4.800;2023-03-01T13:50:04;7.10;99.90
21646;DHT22;10984;45.712;4.800;2023-03-01T13:52:50;7.10;99.90
21646;DHT22;10984;45.712;4.800;2023-03-01T13:55:21;7.30;99.90
21646;DHT22;10984;45.712;4.800;2023-03-01T13:57:51;7.30;99.90
21646;DHT22;10984;45.712;4.800;2023-03-01T14:00:39;7.40;99.90
21646;DHT22;10984;45.712;4.800;2023-03-01T14:03:24;7.40;99.90
21646;DHT22;10984;45.712;4.800;2023-03-01T14:06:09;7.50;99.90
21646;DHT22;10984;45.712;4.800;2023-03-01T14:08:37;7.40;99.90
21646;DHT22;10984;45.712;4.800;2023-03-01T14:22:59;7.20;99.90
21646;DHT22;10984;45.712;4.800;2023-03-01T14:25:29;7.10;99.90
21646;DHT22;10984;45.712;4.800;2023-03-01T14:28:10;7.00;99.90
21646;DHT22;10984;45.712;4.800;2023-03-01T14:30:41;6.80;99.90
21646;DHT22;10984;45.712;4.800;2023-03-01T14:33:20;6.70;99.90
21646;DHT22;10984;45.712;4.800;2023-03-01T14:36:06;6.60;99.90
21646;DHT22;10984;45.712;4.800;2023-03-01T14:38:50;6.50;99.90
21646;DHT22;10984;45.712;4.800;2023-03-01T14:41:20;6.60;99.90
21646;DHT22;10984;45.712;4.800;2023-03-01T14:49:19;6.50;99.90
21646;DHT22;10984;45.712;4.800;2023-03-01T14:52:06;6.50;99.90
21646;DHT22;10984;45.712;4.800;2023-03-01T14:54:52;6.40;99.90
21646;DHT22;10984;45.712;4.800;2023-03-01T14:57:36;6.30;99.90
21646;DHT22;10984;45.712;4.800;2023-03-01T15:00:06;6.40;99.90
21646;DHT22;10984;45.712;4.800;2023-03-01T15:02:33;6.20;99.90
21646;DHT22;10984;45.712;4.800;2023-03-01T15:05:02;6.20;99.90
21646;DHT22;10984;45.712;4.800;2023-03-01T15:07:33;6.10;99.90
21646;DHT22;10984;45.712;4.800;2023-03-01T15:10:00;6.00;99.90
21646;DHT22;10984;45.712;4.800;2023-03-01T15:12:45;6.00;99.90
21646;DHT22;10984;45.712;4.800;2023-03-01T15:18:33;6.10;99.90
21646;DHT22;10984;45.712;4.800;2023-03-01T15:21:20;6.10;99.90
21646;DHT22;10984;45.712;4.800;2023-03-01T15:26:49;6.20;99.90
21646;DHT22;10984;45.712;4.800;2023-03-01T15:29:35;6.20;99.90
21646;DHT22;10984;45.712;4.800;2023-03-01T15:38:33;6.20;99.90
21646;DHT22;10984;45.712;4.800;2023-03-01T15:41:02;6.20;99.90
21646;DHT22;10984;45.712;4.800;2023-03-01T15:43:46;6.20;99.90
21646;DHT22;10984;45.712;4.800;2023-03-01T15:55:23;6.00;99.90
21646;DHT22;10984;45.712;4.800;2023-03-01T15:57:50;6.10;99.90
21646;DHT22;10984;45.712;4.800;2023-03-01T16:00:24;6.10;99.90
21646;DHT22;10984;45.712;4.800;2023-03-01T16:02:49;6.00;99.90
21646;DHT22;10984;45.712;4.800;2023-03-01T16:07:44;6.00;99.90
21646;DHT22;10984;45.712;4.800;2023-03-01T16:10:10;6.00;99.90
21646;DHT22;10984;45.712;4.800;2023-03-01T16:12:35;6.00;99.90
21646;DHT22;10984;45.712;4.800;2023-03-01T16:15:01;5.90;99.90
21646;DHT22;10984;45.712;4.800;2023-03-01T16:17:27;5.80;99.90
21646;DHT22;10984;45.712;4.800;2023-03-01T16:19:53;5.90;99.90
21646;DHT22;10984;45.712;4.800;2023-03-01T16:22:19;5.80;99.90
21646;DHT22;10984;45.712;4.800;2023-03-01T16:24:50;5.80;99.90
21646;DHT22;10984;45.712;4.800;2023-03-01T16:27:15;5.70;99.90
21646;DHT22;10984;45.712;4.800;2023-03-01T16:29:41;5.70;99.90
21646;DHT22;10984;45.712;4.800;2023-03-01T16:32:06;5.70;99.90
21646;DHT22;10984;45.712;4.800;2023-03-01T16:34:32;5.60;99.90
21646;DHT22;10984;45.712;4.800;2023-03-01T16:36:58;5.60;99.90
21646;DHT22;10984;45.712;4.800;2023-03-01T16:39:23;5.60;99.90
21646;DHT22;10984;45.712;4.800;2023-03-01T16:41:49;5.50;99.90
21646;DHT22;10984;45.712;4.800;2023-03-01T16:44:15;5.50;99.90
21646;DHT22;10984;45.712;4.800;2023-03-01T16:46:41;5.40;99.90
21646;DHT22;10984;45.712;4.800;2023-03-01T16:49:08;5.40;99.90
21646;DHT22;10984;45.712;4.800;2023-03-01T16:51:34;5.40;99.90
21646;DHT22;10984;45.712;4.800;2023-03-01T16:54:01;5.40;99.90
21646;DHT22;10984;45.712;4.800;2023-03-01T16:56:27;5.30;99.90
21646;DHT22;10984;45.712;4.800;2023-03-01T16:58:54;5.30;99.90
21646;DHT22;10984;45.712;4.800;2023-03-01T17:01:20;5.30;99.90
21646;DHT22;10984;45.712;4.800;2023-03-01T17:03:49;5.30;99.90
21646;DHT22;10984;45.712;4.800;2023-03-01T17:06:18;5.30;99.90
21646;DHT22;10984;45.712;4.800;2023-03-01T17:08:45;5.30;99.90
21646;DHT22;10984;45.712;4.800;2023-03-01T17:11:30;5.30;99.90
21646;DHT22;10984;45.712;4.800;2023-03-01T17:13:56;5.20;99.90
21646;DHT22;10984;45.712;4.800;2023-03-01T17:16:22;5.20;99.90
21646;DHT22;10984;45.712;4.800;2023-03-01T17:18:48;5.30;99.90
21646;DHT22;10984;45.712;4.800;2023-03-01T17:21:14;5.20;99.90
21646;DHT22;10984;45.712;4.800;2023-03-01T17:23:43;5.10;99.90
21646;DHT22;10984;45.712;4.800;2023-03-01T17:26:09;5.10;99.90
21646;DHT22;10984;45.712;4.800;2023-03-01T17:28:36;5.10;99.90
21646;DHT22;10984;45.712;4.800;2023-03-01T17:31:04;5.10;99.90
21646;DHT22;10984;45.712;4.800;2023-03-01T17:33:30;5.00;99.90
21646;DHT22;10984;45.712;4.800;2023-03-01T17:35:56;5.00;99.90
21646;DHT22;10984;45.712;4.800;2023-03-01T17:38:22;5.00;99.90
21646;DHT22;10984;45.712;4.800;2023-03-01T17:40:48;5.00;99.90
21646;DHT22;10984;45.712;4.800;2023-03-01T17:43:15;5.00;99.90
21646;DHT22;10984;45.712;4.800;2023-03-01T17:45:41;5.00;99.90
21646;DHT22;10984;45.712;4.800;2023-03-01T17:48:09;5.00;99.90
21646;DHT22;10984;45.712;4.800;2023-03-01T17:50:36;5.10;99.90
21646;DHT22;10984;45.712;4.800;2023-03-01T17:53:02;5.10;99.90
21646;DHT22;10984;45.712;4.800;2023-03-01T17:55:31;5.10;99.90
21646;DHT22;10984;45.712;4.800;2023-03-01T17:57:57;5.10;99.90
21646;DHT22;10984;45.712;4.800;2023-03-01T18:00:23;5.10;99.90
21646;DHT22;10984;45.712;4.800;2023-03-01T18:02:49;5.20;99.90
21646;DHT22;10984;45.712;4.800;2023-03-01T18:05:14;5.20;99.90
21646;DHT22;10984;45.712;4.800;2023-03-01T18:07:40;5.20;99.90
21646;DHT22;10984;45.712;4.800;2023-03-01T18:10:06;5.20;99.90
21646;DHT22;10984;45.712;4.800;2023-03-01T18:12:32;5.20;99.90
21646;DHT22;10984;45.712;4.800;2023-03-01T18:14:57;5.20;99.90
21646;DHT22;10984;45.712;4.800;2023-03-01T18:17:23;5.20;99.90
21646;DHT22;10984;45.712;4.800;2023-03-01T18:19:50;5.30;99.90
21646;DHT22;10984;45.712;4.800;2023-03-01T18:22:16;5.30;99.90
21646;DHT22;10984;45.712;4.800;2023-03-01T18:24:42;5.30;99.90
21646;DHT22;10984;45.712;4.800;2023-03-01T18:27:07;5.20;99.90
21646;DHT22;10984;45.712;4.800;2023-03-01T18:29:35;5.30;99.90
21646;DHT22;10984;45.712;4.800;2023-03-01T18:32:01;5.30;99.90
21646;DHT22;10984;45.712;4.800;2023-03-01T18:34:26;5.30;99.90
21646;DHT22;10984;45.712;4.800;2023-03-01T18:36:53;5.20;99.90
21646;DHT22;10984;45.712;4.800;2023-03-01T18:39:21;5.20;99.90
21646;DHT22;10984;45.712;4.800;2023-03-01T18:41:46;5.20;99.90
21646;DHT22;10984;45.712;4.800;2023-03-01T18:44:12;5.20;99.90
21646;DHT22;10984;45.712;4.800;2023-03-01T18:46:38;5.20;99.90
21646;DHT22;10984;45.712;4.800;2023-03-01T18:49:06;5.20;99.90
21646;DHT22;10984;45.712;4.800;2023-03-01T18:51:32;5.20;99.90
21646;DHT22;10984;45.712;4.800;2023-03-01T18:53:59;5.10;99.90
21646;DHT22;10984;45.712;4.800;2023-03-01T18:56:28;5.10;99.90
21646;DHT22;10984;45.712;4.800;2023-03-01T18:58:53;5.20;99.90
21646;DHT22;10984;45.712;4.800;2023-03-01T19:01:22;5.10;99.90
21646;DHT22;10984;45.712;4.800;2023-03-01T19:03:49;5.20;99.90
21646;DHT22;10984;45.712;4.800;2023-03-01T19:06:15;5.20;99.90
21646;DHT22;10984;45.712;4.800;2023-03-01T19:08:41;5.10;99.90
21646;DHT22;10984;45.712;4.800;2023-03-01T19:11:09;5.10;99.90
21646;DHT22;10984;45.712;4.800;2023-03-01T19:13:36;5.10;99.90
21646;DHT22;10984;45.712;4.800;2023-03-01T19:16:24;5.10;99.90
21646;DHT22;10984;45.712;4.800;2023-03-01T19:19:03;5.10;99.90
21646;DHT22;10984;45.712;4.800;2023-03-01T19:21:31;5.10;99.90
21646;DHT22;10984;45.712;4.800;2023-03-01T19:23:57;5.20;99.90
21646;DHT22;10984;45.712;4.800;2023-03-01T19:26:25;5.20;99.90
21646;DHT22;10984;45.712;4.800;2023-03-01T19:28:51;5.10;99.90
21646;DHT22;10984;45.712;4.800;2023-03-01T19:31:22;5.10;99.90
21646;DHT22;10984;45.712;4.800;2023-03-01T19:33:50;5.10;99.90
21646;DHT22;10984;45.712;4.800;2023-03-01T19:36:17;5.00;99.90
21646;DHT22;10984;45.712;4.800;2023-03-01T19:38:43;5.00;99.90
21646;DHT22;10984;45.712;4.800;2023-03-01T19:41:11;5.10;99.90